Time;durP1;ratioP1;P1;durP2;ratioP2;P2;SDS_P1;SDS_P2;PMS_P1;PMS_P2;Temp;Humidity;BMP_temperature;BMP_pressure;BME280_temperature;BME280_humidity;BME280_pressure;Samples;Min_cycle;Max_cycle;Signal;HPM_P1;HPM_P2
2021/07/22 04:46:05;;;;;;;14.65;7.35;;;;;;;16.80;67.65;100674.84;5011026;28;105885;-67
2021/07/22 04:48:31;;;;;;;13.13;7.72;;;;;;;16.86;67.66;100674.03;5006261;28;105898;-67
2021/07/22 04:50:57;;;;;;;17.65;7.30;;;;;;;16.95;67.83;100682.81;5005798;28;106225;-68
2021/07/22 04:53:22;;;;;;;13.52;7.55;;;;;;;17.01;68.02;100687.38;5005557;28;106361;-67
2021/07/22 04:55:48;;;;;;;11.77;7.75;;;;;;;17.07;68.12;100686.59;5002928;28;107304;-67
2021/07/22 04:58:13;;;;;;;13.90;7.90;;;;;;;17.15;68.20;100687.44;5006265;28;106551;-70
2021/07/22 05:00:38;;;;;;;13.43;7.80;;;;;;;17.23;68.42;100685.38;5004845;28;106160;-71
2021/07/22 05:03:04;;;;;;;12.20;8.02;;;;;;;17.33;68.60;100693.09;5004580;28;105974;-71
2021/07/22 05:05:29;;;;;;;12.45;7.68;;;;;;;17.41;68.42;100692.06;5004116;28;105933;-73
2021/07/22 05:07:57;;;;;;;15.57;8.27;;;;;;;17.49;68.43;100683.78;5005537;28;106347;-73
2021/07/22 05:10:22;;;;;;;12.90;7.90;;;;;;;17.56;68.23;100695.44;5005224;28;106264;-74
2021/07/22 05:12:47;;;;;;;13.40;6.90;;;;;;;17.64;68.22;100688.19;5004516;28;107430;-72
2021/07/22 05:15:13;;;;;;;13.07;7.93;;;;;;;17.71;68.18;100691.72;5004328;28;106480;-72
2021/07/22 05:17:39;;;;;;;14.85;7.38;;;;;;;17.77;68.21;100691.72;5005279;28;105937;-72
2021/07/22 05:20:05;;;;;;;12.95;7.55;;;;;;;17.84;67.83;100694.44;5004707;28;106198;-74
2021/07/22 05:22:30;;;;;;;13.93;7.50;;;;;;;17.83;67.76;100689.25;5003885;28;106045;-73
2021/07/22 05:24:56;;;;;;;16.48;8.02;;;;;;;17.83;67.80;100689.25;5004353;28;106128;-73
2021/07/22 05:27:21;;;;;;;14.65;8.68;;;;;;;17.86;67.88;100689.66;5005249;28;105968;-70
2021/07/22 05:29:46;;;;;;;13.23;7.78;;;;;;;17.91;67.81;100697.97;5004007;28;106248;-73
2021/07/22 05:32:15;;;;;;;13.93;7.45;;;;;;;17.95;67.75;100689.47;5002929;28;110223;-72
2021/07/22 05:34:40;;;;;;;16.45;7.88;;;;;;;17.97;67.83;100695.50;5004550;28;105971;-73
2021/07/22 05:37:11;;;;;;;13.95;7.97;;;;;;;18.01;67.71;100694.88;5005502;28;105833;-73
2021/07/22 05:39:36;;;;;;;13.10;8.43;;;;;;;18.04;67.72;100690.94;5004920;28;106004;-76
2021/07/22 05:42:03;;;;;;;15.38;8.15;;;;;;;18.05;67.67;100693.41;5004464;28;105962;-72
2021/07/22 05:44:29;;;;;;;19.60;8.45;;;;;;;18.14;67.95;100699.44;5003956;28;106135;-73
2021/07/22 05:46:54;;;;;;;15.45;9.00;;;;;;;18.24;67.72;100696.34;5001924;28;106012;-72
2021/07/22 05:49:19;;;;;;;15.40;8.25;;;;;;;18.34;67.74;100698.59;5004509;28;106363;-72
2021/07/22 05:51:45;;;;;;;16.35;8.32;;;;;;;18.40;67.70;100700.47;5003884;28;116214;-73
2021/07/22 05:54:10;;;;;;;15.30;7.97;;;;;;;18.47;67.17;100701.28;5003466;28;113526;-70
2021/07/22 05:56:36;;;;;;;14.75;8.88;;;;;;;18.53;67.12;100700.44;4996528;28;105915;-72
2021/07/22 05:59:01;;;;;;;14.27;7.70;;;;;;;18.58;66.77;100697.13;4991243;28;106151;-73
2021/07/22 06:01:26;;;;;;;14.98;8.98;;;;;;;18.64;66.71;100703.53;4990376;28;105942;-71
2021/07/22 06:03:52;;;;;;;13.50;7.60;;;;;;;18.67;66.58;100701.25;4990695;28;105910;-70
2021/07/22 06:06:17;;;;;;;14.40;7.15;;;;;;;18.72;66.42;100697.91;4991422;28;105944;-72
2021/07/22 06:08:43;;;;;;;15.85;7.20;;;;;;;18.78;66.42;100703.28;4991148;28;106226;-69
2021/07/22 06:11:10;;;;;;;15.77;8.65;;;;;;;18.85;66.30;100703.28;4990434;28;106039;-73
2021/07/22 06:13:36;;;;;;;13.13;7.35;;;;;;;18.99;66.35;100703.25;4990472;28;105953;-71
2021/07/22 06:16:02;;;;;;;16.98;8.30;;;;;;;19.08;66.10;100704.66;4991419;28;105960;-71
2021/07/22 06:18:28;;;;;;;16.33;7.82;;;;;;;19.19;65.72;100700.47;4991102;28;106542;-74
2021/07/22 06:20:54;;;;;;;12.32;8.30;;;;;;;19.26;65.47;100704.78;4990458;28;105937;-73
2021/07/22 06:23:19;;;;;;;12.57;8.23;;;;;;;19.28;64.91;100713.50;4990446;28;106184;-73
2021/07/22 06:25:44;;;;;;;11.55;7.38;;;;;;;19.34;65.06;100706.44;4991523;28;106109;-73
2021/07/22 06:28:10;;;;;;;14.73;8.18;;;;;;;19.44;64.84;100700.56;4990671;28;106183;-69
2021/07/22 06:30:35;;;;;;;13.77;7.88;;;;;;;19.50;64.55;100705.06;4990045;28;110916;-70
2021/07/22 06:33:00;;;;;;;16.83;8.07;;;;;;;19.54;64.51;100700.91;4990268;28;106064;-75
2021/07/22 06:35:26;;;;;;;15.13;8.25;;;;;;;19.59;63.92;100702.97;4990659;28;106097;-72
2021/07/22 06:37:51;;;;;;;16.67;8.48;;;;;;;19.65;63.85;100701.25;4977157;28;106214;-72
2021/07/22 06:40:16;;;;;;;27.67;11.23;;;;;;;19.77;64.24;100700.34;4970066;28;108800;-69
2021/07/22 06:42:42;;;;;;;15.32;9.23;;;;;;;19.88;63.63;100696.13;4969328;28;105811;-69
2021/07/22 06:45:08;;;;;;;15.80;8.20;;;;;;;20.00;63.60;100703.53;4970609;28;105819;-69
2021/07/22 06:47:40;;;;;;;15.45;8.93;;;;;;;20.08;63.31;100697.84;4970279;28;106132;-70
2021/07/22 06:50:08;;;;;;;18.40;8.32;;;;;;;20.19;63.32;100697.13;4981005;28;106588;-70
2021/07/22 06:52:40;;;;;;;13.20;6.82;;;;;;;20.30;62.96;100698.28;4989479;28;106097;-73
2021/07/22 06:55:07;;;;;;;12.88;7.63;;;;;;;20.36;62.21;100704.69;4990434;28;105912;-71
2021/07/22 06:57:32;;;;;;;17.13;7.38;;;;;;;20.42;62.12;100706.47;4988023;28;106170;-71
2021/07/22 06:59:58;;;;;;;18.33;8.60;;;;;;;20.51;62.03;100701.63;4988690;28;105947;-71
2021/07/22 07:02:23;;;;;;;16.67;8.30;;;;;;;20.61;61.82;100696.50;4989139;28;106123;-71
2021/07/22 07:04:48;;;;;;;16.77;8.15;;;;;;;20.66;61.43;100701.25;4990136;28;106179;-71
2021/07/22 07:07:16;;;;;;;17.85;8.18;;;;;;;20.66;60.65;100701.25;4989232;28;105889;-70
2021/07/22 07:09:42;;;;;;;15.27;8.85;;;;;;;20.68;60.91;100707.28;4988449;28;106420;-71
2021/07/22 07:12:08;;;;;;;14.52;7.55;;;;;;;20.69;60.58;100700.84;4989151;28;106082;-72
2021/07/22 07:14:33;;;;;;;13.10;7.57;;;;;;;20.72;60.70;100697.69;4989410;28;106103;-70
2021/07/22 07:16:58;;;;;;;15.52;7.78;;;;;;;20.70;60.41;100700.63;4989147;28;106299;-74
2021/07/22 07:19:24;;;;;;;15.27;7.72;;;;;;;20.73;60.14;100702.84;4988831;28;115139;-71
2021/07/22 07:21:49;;;;;;;16.23;7.22;;;;;;;20.80;60.34;100691.97;4989704;28;106042;-71
2021/07/22 07:24:14;;;;;;;14.88;7.22;;;;;;;20.83;59.83;100694.25;4990088;28;105956;-72
2021/07/22 07:26:40;;;;;;;17.70;11.73;;;;;;;20.94;59.89;100703.47;4989783;28;105915;-72
2021/07/22 07:29:05;;;;;;;13.95;8.15;;;;;;;20.99;59.42;100694.66;4988774;28;106034;-73
2021/07/22 07:31:30;;;;;;;14.18;7.75;;;;;;;21.01;59.20;100693.38;4989206;28;107177;-75
2021/07/22 07:33:56;;;;;;;12.43;7.28;;;;;;;21.05;59.10;100694.59;4990587;28;105934;-72
2021/07/22 07:36:21;;;;;;;14.90;7.20;;;;;;;21.07;58.73;100692.47;4989675;28;105705;-71
2021/07/22 07:38:46;;;;;;;12.70;7.53;;;;;;;21.11;58.58;100690.97;4989058;28;106084;-71
2021/07/22 07:41:12;;;;;;;11.95;6.55;;;;;;;21.15;58.46;100688.63;4989123;28;106521;-71
2021/07/22 07:43:37;;;;;;;10.70;6.00;;;;;;;21.22;58.30;100696.66;4989860;28;106005;-69
2021/07/22 07:46:02;;;;;;;11.30;5.85;;;;;;;21.26;57.71;100695.97;4989215;28;105984;-70
2021/07/22 07:48:28;;;;;;;12.65;6.25;;;;;;;21.34;57.88;100696.69;4989031;28;106583;-71
2021/07/22 07:50:53;;;;;;;12.43;7.22;;;;;;;21.42;57.31;100707.22;4988705;28;106373;-70
2021/07/22 07:53:19;;;;;;;14.43;6.30;;;;;;;21.46;57.02;100697.59;4989953;28;106304;-69
2021/07/22 07:55:45;;;;;;;14.55;6.95;;;;;;;21.50;57.04;100693.38;4989504;28;106195;-70
2021/07/22 07:58:11;;;;;;;11.43;7.20;;;;;;;21.64;57.24;100697.56;4989449;28;107154;-73
2021/07/22 08:00:37;;;;;;;16.42;8.48;;;;;;;21.78;56.79;100697.38;4988711;28;106205;-72
2021/07/22 08:03:04;;;;;;;18.02;7.55;;;;;;;21.84;56.47;100696.41;4990126;28;105894;-71
2021/07/22 08:05:29;;;;;;;10.43;6.20;;;;;;;21.82;55.97;100695.84;4989215;28;106141;-73
2021/07/22 08:07:55;;;;;;;8.65;5.93;;;;;;;21.84;56.04;100693.69;4989180;28;105938;-72
2021/07/22 08:10:20;;;;;;;14.43;5.90;;;;;;;21.78;55.46;100700.06;4988949;28;105958;-75
2021/07/22 08:12:46;;;;;;;11.07;5.68;;;;;;;21.73;55.33;100706.16;4989088;28;105959;-70
2021/07/22 08:15:13;;;;;;;13.27;6.97;;;;;;;21.68;55.32;100694.38;4987382;28;106714;-73
2021/07/22 08:17:38;;;;;;;12.88;6.38;;;;;;;21.68;55.36;100710.66;4988563;28;106282;-71
2021/07/22 08:20:06;;;;;;;12.45;6.53;;;;;;;21.71;55.47;100702.88;4988075;28;105827;-72
2021/07/22 08:22:35;;;;;;;12.55;6.72;;;;;;;21.77;55.60;100699.25;4986436;28;105926;-74
2021/07/22 08:25:02;;;;;;;12.43;6.40;;;;;;;21.84;55.46;100701.84;4969115;28;106164;-77
2021/07/22 08:27:29;;;;;;;13.45;6.45;;;;;;;21.94;55.28;100701.28;4968394;28;106609;-73
2021/07/22 08:29:55;;;;;;;16.38;6.65;;;;;;;22.07;55.03;100701.06;4972035;28;105938;-69
2021/07/22 08:32:21;;;;;;;13.85;7.35;;;;;;;22.10;54.83;100697.03;4988208;28;105965;-67
2021/07/22 08:34:47;;;;;;;16.30;8.27;;;;;;;22.24;55.02;100695.78;4988275;28;105886;-68
2021/07/22 08:37:12;;;;;;;15.32;6.68;;;;;;;22.47;54.16;100694.13;4987646;28;105947;-69
2021/07/22 08:39:39;;;;;;;10.77;6.45;;;;;;;22.41;53.64;100700.53;4987678;28;106084;-69
2021/07/22 08:42:09;;;;;;;12.50;6.20;;;;;;;22.48;53.70;100695.78;4988235;28;106094;-72
2021/07/22 08:44:35;;;;;;;12.13;6.78;;;;;;;22.61;53.79;100684.69;4985307;28;105941;-76
2021/07/22 08:47:03;;;;;;;14.18;6.50;;;;;;;22.73;53.56;100681.13;4988286;28;105767;-71
2021/07/22 08:49:28;;;;;;;16.77;6.03;;;;;;;22.85;53.30;100694.69;4987661;28;105965;-72
2021/07/22 08:51:55;;;;;;;10.40;5.38;;;;;;;22.81;51.87;100686.16;4989030;28;106081;-71
2021/07/22 08:54:21;;;;;;;9.00;5.10;;;;;;;22.78;51.92;100682.03;4988135;28;106210;-70
2021/07/22 08:56:46;;;;;;;11.75;4.90;;;;;;;22.85;51.64;100689.25;4988033;28;106281;-71
2021/07/22 08:59:13;;;;;;;9.43;5.22;;;;;;;22.90;51.63;100682.03;4987450;28;105818;-71
2021/07/22 09:01:42;;;;;;;10.27;4.80;;;;;;;23.09;51.30;100684.56;4988431;28;106174;-70
2021/07/22 09:04:07;;;;;;;10.15;4.32;;;;;;;23.34;51.19;100680.72;4987651;28;105849;-72
2021/07/22 09:06:33;;;;;;;8.52;4.20;;;;;;;23.72;50.84;100690.09;4987535;28;105968;-71
2021/07/22 09:09:13;;;;;;;10.27;4.57;;;;;;;23.96;49.57;100683.47;4987189;28;105966;-71
2021/07/22 09:11:59;;;;;;;10.73;5.35;;;;;;;24.11;49.21;100690.22;4988276;28;106048;-71
2021/07/22 09:14:27;;;;;;;9.40;5.50;;;;;;;24.25;48.93;100674.34;4987382;28;106695;-71
2021/07/22 09:16:52;;;;;;;7.57;4.55;;;;;;;24.49;48.60;100678.53;4987241;28;107218;-72
2021/07/22 09:19:38;;;;;;;10.50;4.55;;;;;;;24.88;48.36;100674.97;4987659;28;106531;-71
2021/07/22 09:22:06;;;;;;;11.13;4.82;;;;;;;25.17;47.79;100685.66;4987520;28;106436;-71
2021/07/22 09:24:52;;;;;;;11.55;4.82;;;;;;;25.49;46.90;100677.56;4984117;28;106243;-71
2021/07/22 09:27:40;;;;;;;9.30;5.18;;;;;;;25.88;46.50;100673.81;4985405;28;106734;-70
2021/07/22 09:30:08;;;;;;;9.02;4.60;;;;;;;26.08;45.22;100683.25;4985623;28;106230;-69
2021/07/22 09:32:35;;;;;;;6.65;4.43;;;;;;;26.23;44.93;100688.84;4990328;28;105895;-69
2021/07/22 09:35:11;;;;;;;7.75;5.18;;;;;;;26.51;44.11;100686.81;4990346;28;106163;-71
2021/07/22 09:37:43;;;;;;;11.95;4.80;;;;;;;26.77;43.25;100684.25;4988328;28;106306;-72
2021/07/22 09:40:11;;;;;;;8.73;4.80;;;;;;;26.85;42.71;100672.78;4989713;28;106230;-72
2021/07/22 09:42:55;;;;;;;8.00;4.38;;;;;;;27.20;42.87;100668.50;4991255;28;105877;-73
2021/07/22 09:45:31;;;;;;;11.00;4.60;;;;;;;27.90;42.02;100672.69;4988455;28;106335;-72
2021/07/22 09:48:09;;;;;;;8.95;4.18;;;;;;;28.54;40.89;100660.25;4988231;28;105836;-74
2021/07/22 09:50:44;;;;;;;8.35;5.20;;;;;;;29.11;39.79;100660.84;4987450;28;106978;-74
2021/07/22 09:53:12;;;;;;;8.10;4.03;;;;;;;29.36;38.61;100665.41;4988448;28;105832;-72
2021/07/22 09:55:43;;;;;;;8.32;4.32;;;;;;;29.29;37.67;100662.13;4988549;28;106266;-74
2021/07/22 09:58:10;;;;;;;6.43;4.50;;;;;;;29.10;37.74;100661.13;4986944;28;106821;-74
2021/07/22 10:00:40;;;;;;;6.38;4.65;;;;;;;28.83;37.61;100654.16;4989068;28;106107;-71
2021/07/22 10:03:08;;;;;;;7.03;4.47;;;;;;;28.49;37.94;100663.84;4990568;28;106595;-74
2021/07/22 10:05:40;;;;;;;8.90;4.63;;;;;;;28.31;38.74;100664.44;4990050;28;106339;-74
2021/07/22 10:08:06;;;;;;;7.47;4.60;;;;;;;28.22;38.63;100663.38;4991032;28;106236;-71
2021/07/22 10:10:32;;;;;;;11.75;4.53;;;;;;;28.17;38.66;100666.94;4990961;28;106195;-72
2021/07/22 10:13:02;;;;;;;9.25;4.75;;;;;;;28.05;38.25;100666.41;4990340;28;106054;-71
2021/07/22 10:15:31;;;;;;;10.32;4.63;;;;;;;27.89;38.29;100666.41;4989888;28;106008;-71
2021/07/22 10:17:57;;;;;;;8.13;4.47;;;;;;;27.87;38.67;100668.59;4990027;28;106252;-71
2021/07/22 10:20:28;;;;;;;9.02;4.45;;;;;;;27.70;38.38;100672.41;4990046;28;105807;-71
2021/07/22 10:22:54;;;;;;;15.27;5.57;;;;;;;27.51;38.47;100666.66;4990549;28;106123;-71
2021/07/22 10:25:19;;;;;;;7.72;4.78;;;;;;;27.32;38.80;100663.59;4990222;28;106158;-69
2021/07/22 10:27:45;;;;;;;10.35;4.90;;;;;;;27.26;39.06;100669.34;4989869;28;105986;-68
2021/07/22 10:30:12;;;;;;;11.70;5.43;;;;;;;27.20;39.28;100665.75;4989580;28;106049;-70
2021/07/22 10:32:42;;;;;;;9.35;4.90;;;;;;;27.12;39.23;100663.56;4990877;28;105921;-69
2021/07/22 10:35:08;;;;;;;6.78;4.47;;;;;;;26.94;39.43;100665.72;4989854;28;105936;-70
2021/07/22 10:37:33;;;;;;;7.53;4.85;;;;;;;26.82;39.75;100662.41;4989486;28;105885;-68
2021/07/22 10:40:07;;;;;;;7.18;4.93;;;;;;;26.73;39.79;100656.59;4989499;28;106009;-68
2021/07/22 10:42:40;;;;;;;10.35;4.65;;;;;;;26.60;39.57;100663.38;4989502;28;105988;-67
2021/07/22 10:45:26;;;;;;;8.32;4.97;;;;;;;26.43;39.75;100666.28;4987611;28;106201;-67
2021/07/22 10:48:08;;;;;;;15.25;4.88;;;;;;;26.37;40.13;100661.03;4989238;28;106078;-69
2021/07/22 10:50:37;;;;;;;16.77;4.72;;;;;;;26.32;40.15;100659.94;4989688;28;105817;-67
2021/07/22 10:53:03;;;;;;;10.60;5.10;;;;;;;26.25;40.09;100658.53;4998000;28;105962;-67
2021/07/22 10:55:54;;;;;;;7.25;4.38;;;;;;;26.10;39.73;100651.06;4996987;28;106617;-67
2021/07/22 10:58:33;;;;;;;8.07;5.10;;;;;;;25.86;40.18;100651.41;4998295;28;106885;-66
2021/07/22 11:00:59;;;;;;;12.07;5.55;;;;;;;25.74;40.28;100648.03;4992428;28;105992;-66
2021/07/22 11:03:45;;;;;;;10.52;4.40;;;;;;;25.61;40.55;100646.56;4989903;28;106107;-69
2021/07/22 11:06:14;;;;;;;8.57;4.70;;;;;;;25.57;40.96;100646.25;4984436;28;106096;-68
2021/07/22 11:08:41;;;;;;;9.73;5.05;;;;;;;25.61;41.28;100643.84;4988975;28;105871;-70
2021/07/22 11:11:08;;;;;;;8.88;4.50;;;;;;;25.65;41.11;100644.97;4988723;28;106092;-72
2021/07/22 11:13:41;;;;;;;10.57;4.65;;;;;;;25.58;41.01;100638.91;4989470;28;107243;-71
2021/07/22 11:16:21;;;;;;;13.32;4.57;;;;;;;25.54;41.36;100641.31;4989292;28;105895;-71
2021/07/22 11:18:47;;;;;;;14.75;5.13;;;;;;;25.53;41.31;100639.66;4988678;28;106596;-70
2021/07/22 11:21:32;;;;;;;10.30;4.70;;;;;;;25.48;41.25;100640.47;4988116;28;106163;-69
2021/07/22 11:24:09;;;;;;;7.07;4.78;;;;;;;25.41;41.47;100637.13;4988403;28;106072;-67
2021/07/22 11:26:37;;;;;;;9.52;4.95;;;;;;;25.40;41.58;100634.66;4987199;28;106173;-72
2021/07/22 11:29:05;;;;;;;7.75;4.93;;;;;;;25.31;41.58;100637.81;4988060;28;105821;-71
2021/07/22 11:31:32;;;;;;;8.93;4.70;;;;;;;25.26;41.58;100642.38;4987388;28;105956;-69
2021/07/22 11:34:02;;;;;;;14.30;5.07;;;;;;;25.24;41.77;100628.22;4989241;28;106086;-69
2021/07/22 11:36:28;;;;;;;;;;;;;;;25.17;41.60;100631.13;4988877;28;106163;-68
2021/07/22 11:38:54;;;;;;;10.38;4.90;;;;;;;25.03;41.92;100624.44;4988058;28;105973;-69
2021/07/22 11:41:21;;;;;;;9.52;4.45;;;;;;;24.96;42.39;100630.06;4988335;28;105827;-67
2021/07/22 11:43:59;;;;;;;6.95;4.65;;;;;;;24.92;42.33;100629.78;4988403;28;105906;-71
2021/07/22 11:46:38;;;;;;;13.05;4.82;;;;;;;24.90;42.52;100636.56;4988717;28;106323;-70
2021/07/22 11:49:14;;;;;;;7.30;4.55;;;;;;;24.85;42.44;100623.72;4988649;28;105948;-68
2021/07/22 11:51:42;;;;;;;10.15;4.95;;;;;;;24.78;42.16;100632.09;4988370;28;106424;-68
2021/07/22 11:54:08;;;;;;;9.65;4.72;;;;;;;24.77;42.20;100626.91;4988657;28;105872;-66
2021/07/22 11:56:35;;;;;;;10.10;4.75;;;;;;;24.79;42.29;100624.72;4988050;28;106237;-65
2021/07/22 11:59:07;;;;;;;8.35;4.35;;;;;;;24.78;42.39;100623.06;4988642;28;105811;-67
2021/07/22 12:01:37;;;;;;;11.98;4.50;;;;;;;24.73;42.27;100621.13;4988177;28;107169;-65
2021/07/22 12:04:02;;;;;;;11.98;4.40;;;;;;;24.67;42.85;100622.97;4988896;28;105948;-67
2021/07/22 12:06:29;;;;;;;7.22;4.35;;;;;;;24.67;42.85;100625.69;4988539;28;106218;-68
2021/07/22 12:09:08;;;;;;;8.43;4.43;;;;;;;24.70;43.15;100620.78;4988460;28;106564;-67
2021/07/22 12:11:50;;;;;;;13.77;4.82;;;;;;;24.70;42.80;100616.19;4987681;28;106336;-68
2021/07/22 12:14:30;;;;;;;8.52;4.72;;;;;;;24.71;43.05;100617.00;4988829;28;106000;-69
2021/07/22 12:17:01;;;;;;;14.15;4.75;;;;;;;24.74;43.17;100611.03;4988181;28;106179;-68
2021/07/22 12:19:28;;;;;;;10.35;4.50;;;;;;;24.77;42.82;100616.81;4988043;28;105902;-67
2021/07/22 12:22:44;;;;;;;8.82;4.57;;;;;;;24.78;42.75;100617.63;4987724;28;105892;-67
2021/07/22 12:25:12;;;;;;;10.77;4.40;;;;;;;24.83;42.86;100609.50;4975412;28;106637;-68
2021/07/22 12:27:40;;;;;;;10.00;4.70;;;;;;;24.88;42.76;100604.13;4988092;28;106308;-70
2021/07/22 12:30:13;;;;;;;8.32;4.20;;;;;;;24.86;42.80;100608.19;4987908;28;107101;-69
2021/07/22 12:32:50;;;;;;;10.85;5.07;;;;;;;24.90;43.26;100607.41;4988029;28;106404;-68
2021/07/22 12:35:43;;;;;;;7.65;4.80;;;;;;;24.97;42.80;100604.47;4988158;28;105947;-70
2021/07/22 12:38:16;;;;;;;11.27;5.10;;;;;;;24.99;42.76;100607.78;4987552;28;106706;-68
2021/07/22 12:40:44;;;;;;;8.85;4.30;;;;;;;25.03;42.64;100605.34;4988088;28;105872;-68
2021/07/22 12:43:13;;;;;;;9.68;4.65;;;;;;;25.01;42.81;100605.63;4987667;28;106215;-70
2021/07/22 12:45:40;;;;;;;10.07;4.97;;;;;;;25.05;42.64;100603.22;4988298;28;106056;-72
2021/07/22 12:48:06;;;;;;;11.02;4.82;;;;;;;25.10;42.60;100600.53;4987671;28;106339;-71
2021/07/22 12:50:33;;;;;;;12.18;4.80;;;;;;;25.09;42.20;100601.63;4986293;28;107297;-71
2021/07/22 12:53:03;;;;;;;11.63;4.13;;;;;;;25.08;42.33;100600.81;4986878;28;106416;-69
2021/07/22 12:55:38;;;;;;;6.57;3.88;;;;;;;25.12;42.15;100598.38;4988728;28;106112;-68
2021/07/22 12:58:04;;;;;;;10.70;4.47;;;;;;;25.15;42.01;100595.13;5004459;28;106036;-68
2021/07/22 13:00:30;;;;;;;12.32;4.03;;;;;;;25.14;41.91;100591.59;4989227;28;106521;-72
2021/07/22 13:02:57;;;;;;;7.57;4.25;;;;;;;25.19;41.85;100590.78;4987625;28;106027;-69
2021/07/22 13:05:23;;;;;;;6.80;4.15;;;;;;;25.17;41.80;100592.97;4988566;28;106074;-69
2021/07/22 13:07:49;;;;;;;8.20;4.13;;;;;;;25.11;42.01;100588.53;4991622;28;107083;-69
2021/07/22 13:10:16;;;;;;;10.90;4.57;;;;;;;25.06;42.15;100591.22;4991109;28;106649;-71
2021/07/22 13:12:42;;;;;;;8.93;4.18;;;;;;;25.03;42.25;100580.81;4990296;28;106360;-71
2021/07/22 13:15:07;;;;;;;11.23;5.40;;;;;;;25.02;41.95;100584.66;4992236;28;106317;-71
2021/07/22 13:17:39;;;;;;;6.75;4.43;;;;;;;24.97;41.97;100582.69;4990842;28;106526;-68
2021/07/22 13:20:10;;;;;;;8.63;4.47;;;;;;;24.96;41.92;100576.41;5006861;28;106046;-69
2021/07/22 13:22:35;;;;;;;11.38;4.60;;;;;;;24.92;41.93;100579.91;4978768;28;106116;-67
2021/07/22 13:25:01;;;;;;;9.80;4.38;;;;;;;24.90;42.00;100580.16;5004177;28;106073;-67
2021/07/22 13:27:26;;;;;;;10.43;4.93;;;;;;;24.95;41.96;100574.75;5002046;28;106020;-72
2021/07/22 13:29:51;;;;;;;10.13;4.45;;;;;;;25.02;41.74;100584.66;4996233;28;106189;-70
2021/07/22 13:32:17;;;;;;;8.15;4.90;;;;;;;25.09;41.69;100579.81;5007139;28;106164;-71
2021/07/22 13:34:45;;;;;;;8.10;4.65;;;;;;;25.09;41.59;100569.72;4996455;28;106357;-71
2021/07/22 13:37:11;;;;;;;6.95;4.07;;;;;;;25.12;41.33;100568.38;5001820;28;106365;-72
2021/07/22 13:39:37;;;;;;;8.32;4.10;;;;;;;25.15;41.38;100565.13;5001122;28;106013;-70
2021/07/22 13:42:02;;;;;;;7.60;4.18;;;;;;;25.18;41.52;100562.72;4987959;28;106464;-69
2021/07/22 13:44:28;;;;;;;9.82;4.97;;;;;;;25.15;41.36;100563.25;4989804;28;106374;-69
2021/07/22 13:46:53;;;;;;;8.82;4.30;;;;;;;25.16;41.53;100556.72;4989529;28;106185;-70
2021/07/22 13:49:19;;;;;;;8.50;5.07;;;;;;;25.19;41.27;100555.34;4989338;28;106002;-69
2021/07/22 13:51:44;;;;;;;9.80;4.68;;;;;;;25.16;41.22;100553.16;4988697;28;106196;-69
2021/07/22 13:54:09;;;;;;;11.70;4.45;;;;;;;25.11;41.01;100548.50;4990241;28;105932;-69
2021/07/22 13:56:34;;;;;;;8.63;4.50;;;;;;;25.14;41.06;100549.88;4989166;28;106171;-69
2021/07/22 13:59:00;;;;;;;8.98;5.13;;;;;;;25.15;40.92;100554.22;4989058;28;105981;-69
2021/07/22 14:01:25;;;;;;;10.13;4.15;;;;;;;25.10;41.43;100548.75;4989000;28;106058;-69
2021/07/22 14:03:50;;;;;;;9.30;4.60;;;;;;;25.06;40.91;100542.19;4989475;28;106034;-69
2021/07/22 14:06:16;;;;;;;10.60;4.40;;;;;;;24.98;41.41;100541.53;4989574;28;106217;-69
2021/07/22 14:08:43;;;;;;;9.07;4.57;;;;;;;24.98;41.40;100548.91;4988756;28;106585;-66
2021/07/22 14:11:08;;;;;;;12.15;5.28;;;;;;;24.93;41.48;100544.25;4988213;28;106511;-67
2021/07/22 14:13:35;;;;;;;11.00;5.25;;;;;;;24.88;41.10;100546.91;4989585;28;106034;-68
2021/07/22 14:16:00;;;;;;;12.55;5.22;;;;;;;24.78;41.50;100546.78;4988362;28;106273;-69
2021/07/22 14:18:25;;;;;;;7.32;4.38;;;;;;;24.71;41.52;100535.28;4987979;28;117415;-69
2021/07/22 14:20:51;;;;;;;7.05;4.20;;;;;;;24.73;41.81;100538.56;4989052;28;105999;-69
2021/07/22 14:23:20;;;;;;;8.65;4.65;;;;;;;24.66;41.53;100536.88;4995691;28;106522;-69
2021/07/22 14:25:45;;;;;;;8.60;4.43;;;;;;;24.63;41.75;100539.28;5008219;28;106448;-69
2021/07/22 14:28:10;;;;;;;7.30;4.20;;;;;;;24.64;41.67;100536.28;5008139;28;107108;-68
2021/07/22 14:30:39;;;;;;;7.22;4.43;;;;;;;24.63;41.54;100531.94;5008873;28;106039;-69
2021/07/22 14:33:05;;;;;;;8.48;4.63;;;;;;;24.61;41.75;100536.81;5009582;28;106080;-68
2021/07/22 14:35:30;;;;;;;8.55;4.75;;;;;;;24.49;41.81;100530.66;5008904;28;106142;-68
2021/07/22 14:37:55;;;;;;;12.13;4.72;;;;;;;24.37;41.91;100521.78;5008680;28;106426;-69
2021/07/22 14:40:21;;;;;;;7.55;4.50;;;;;;;24.25;42.05;100527.38;5008010;28;106025;-68
2021/07/22 14:42:46;;;;;;;6.72;4.35;;;;;;;24.18;42.28;100516.69;5009204;28;105959;-68
2021/07/22 14:45:11;;;;;;;8.75;4.78;;;;;;;24.04;41.99;100520.84;5008126;28;106408;-68
2021/07/22 14:47:37;;;;;;;10.13;5.07;;;;;;;23.91;42.54;100522.06;5008500;28;106070;-68
2021/07/22 14:50:04;;;;;;;6.63;4.68;;;;;;;23.83;42.86;100520.53;5007316;28;106197;-68
2021/07/22 14:52:30;;;;;;;9.45;4.88;;;;;;;23.77;43.10;100519.66;5008579;28;106085;-68
2021/07/22 14:54:56;;;;;;;6.90;4.63;;;;;;;23.74;43.21;100519.31;5008550;28;106188;-68
2021/07/22 14:57:22;;;;;;;7.57;4.30;;;;;;;23.72;43.45;100516.03;5007890;28;116662;-69
2021/07/22 14:59:48;;;;;;;15.77;11.02;;;;;;;23.65;43.48;100508.88;4983873;28;106549;-71
2021/07/22 15:02:13;;;;;;;8.57;5.07;;;;;;;23.54;43.29;100512.50;4972374;28;106327;-69
2021/07/22 15:04:39;;;;;;;10.65;4.95;;;;;;;23.44;43.76;100501.47;4969944;28;106144;-69
2021/07/22 15:07:04;;;;;;;7.32;5.05;;;;;;;23.38;43.81;100507.91;4968553;28;107565;-70
2021/07/22 15:09:30;;;;;;;8.35;4.60;;;;;;;23.33;43.65;100497.75;4967222;28;105990;-70
2021/07/22 15:11:55;;;;;;;6.90;4.47;;;;;;;23.32;43.76;100499.66;4967750;28;106974;-70
2021/07/22 15:14:20;;;;;;;7.15;4.63;;;;;;;23.31;43.78;100497.22;4967273;28;106627;-70
2021/07/22 15:16:46;;;;;;;11.60;5.20;;;;;;;23.22;43.74;100499.50;4966680;28;106797;-70
2021/07/22 15:19:11;;;;;;;9.20;5.20;;;;;;;23.14;43.99;100497.19;4966927;28;106386;-70
2021/07/22 15:21:37;;;;;;;9.00;5.20;;;;;;;23.08;44.18;100493.53;4967283;28;106124;-70
2021/07/22 15:24:02;;;;;;;9.90;5.10;;;;;;;23.04;44.29;100486.13;4969610;28;106231;-70
2021/07/22 15:26:28;;;;;;;10.10;4.82;;;;;;;23.03;44.52;100490.72;4969336;28;106685;-70
2021/07/22 15:28:53;;;;;;;11.32;5.40;;;;;;;22.98;44.33;100491.47;4968545;28;106142;-70
2021/07/22 15:31:18;;;;;;;8.45;5.53;;;;;;;22.94;44.64;100492.22;4970026;28;106200;-70
2021/07/22 15:33:44;;;;;;;6.65;4.72;;;;;;;22.89;44.64;100492.94;4969567;28;105919;-70
2021/07/22 15:36:09;;;;;;;9.18;4.93;;;;;;;22.84;45.03;100487.44;4969048;28;105863;-70
2021/07/22 15:38:35;;;;;;;10.98;5.40;;;;;;;22.77;44.91;100487.59;4968822;28;105829;-70
2021/07/22 15:41:00;;;;;;;11.20;5.55;;;;;;;22.77;45.13;100482.16;4969670;28;106047;-70
2021/07/22 15:43:25;;;;;;;11.52;5.40;;;;;;;22.74;45.31;100476.38;4968942;28;106220;-71
2021/07/22 15:45:51;;;;;;;9.35;4.82;;;;;;;22.72;45.54;100479.34;4968465;28;106779;-72
2021/07/22 15:48:17;;;;;;;8.98;4.75;;;;;;;22.72;45.88;100483.94;4968723;28;106039;-72
2021/07/22 15:50:42;;;;;;;9.45;4.75;;;;;;;22.69;45.92;100476.28;4969742;28;106133;-67
2021/07/22 15:53:08;;;;;;;10.50;5.25;;;;;;;22.69;46.13;100479.00;4968930;28;106003;-70
2021/07/22 15:55:34;;;;;;;9.25;5.10;;;;;;;22.70;46.06;100475.22;4968820;28;108406;-68
2021/07/22 15:57:59;;;;;;;12.18;5.30;;;;;;;22.68;46.06;100466.47;4968571;28;106451;-70
2021/07/22 16:00:24;;;;;;;10.90;5.68;;;;;;;22.63;46.10;100465.31;4969326;28;105981;-70